Terminal Aerodrome Forecast
Issued by NWS

Home | Current Version | Previous Version | Text Only | Print | Product List | Glossary On
Versions: 1 2 3 4 5 6 7 8 9 10 11 12 13 14 15 16 17 18 19 20 21 22 23 24 25 26 27 28 29 30 31 32 33 34 35 36 37 38 39 40 41 42 43 44 45 46 47
000
FTAK31 PANC 031213 AAA
TAFADU
TAF AMD
PADU 031213Z 0312/0412 30010G20KT 5SM -RA OVC021
     FM031500 33018G28KT 4SM -RA OVC015
     FM040000 32015G25KT P6SM SCT015 OVC025
     FM040600 29012KT P6SM SCT025 OVC040=

USA.gov is the U.S. government's official web portal to all federal, state and local government web resources and services.